sensor_id;sensor_type;location;lat;lon;timestamp;pressure;altitude;pressure_sealevel;temperature;humidity
44044;BME280;29709;52.396;16.796;2022-11-18T00:02:02;100721.05;;;1.55;69.74
44044;BME280;29709;52.396;16.796;2022-11-18T00:05:05;100719.88;;;1.59;69.62
44044;BME280;29709;52.396;16.796;2022-11-18T00:08:08;100723.20;;;1.63;68.76
44044;BME280;29709;52.396;16.796;2022-11-18T00:11:14;100718.70;;;1.51;68.93
44044;BME280;29709;52.396;16.796;2022-11-18T00:14:31;100719.80;;;1.48;69.04
44044;BME280;29709;52.396;16.796;2022-11-18T00:17:34;100718.27;;;1.44;69.47
44044;BME280;29709;52.396;16.796;2022-11-18T00:21:05;100724.15;;;1.38;69.83
44044;BME280;29709;52.396;16.796;2022-11-18T00:24:09;100720.77;;;1.34;70.05
44044;BME280;29709;52.396;16.796;2022-11-18T00:27:14;100728.16;;;1.32;69.97
44044;BME280;29709;52.396;16.796;2022-11-18T00:30:17;100726.74;;;1.39;70.13
44044;BME280;29709;52.396;16.796;2022-11-18T00:33:21;100720.08;;;1.56;69.96
44044;BME280;29709;52.396;16.796;2022-11-18T00:36:24;100726.10;;;1.72;69.64
44044;BME280;29709;52.396;16.796;2022-11-18T00:39:27;100725.06;;;1.86;69.27
44044;BME280;29709;52.396;16.796;2022-11-18T00:42:30;100727.21;;;1.94;69.07
44044;BME280;29709;52.396;16.796;2022-11-18T00:46:12;100723.22;;;1.87;68.74
44044;BME280;29709;52.396;16.796;2022-11-18T00:49:16;100717.80;;;1.87;69.24
44044;BME280;29709;52.396;16.796;2022-11-18T00:52:19;100710.66;;;1.86;69.39
44044;BME280;29709;52.396;16.796;2022-11-18T00:55:22;100710.09;;;1.93;68.91
44044;BME280;29709;52.396;16.796;2022-11-18T00:58:25;100712.91;;;1.92;68.91
44044;BME280;29709;52.396;16.796;2022-11-18T01:01:28;100718.45;;;1.90;68.36
44044;BME280;29709;52.396;16.796;2022-11-18T01:04:31;100733.37;;;1.72;68.29
44044;BME280;29709;52.396;16.796;2022-11-18T01:07:34;100738.71;;;1.61;68.75
44044;BME280;29709;52.396;16.796;2022-11-18T01:10:39;100736.12;;;1.59;69.22
44044;BME280;29709;52.396;16.796;2022-11-18T01:13:42;100736.20;;;1.70;69.17
44044;BME280;29709;52.396;16.796;2022-11-18T01:20:47;100718.32;;;1.68;69.23
44044;BME280;29709;52.396;16.796;2022-11-18T01:23:52;100713.66;;;1.70;68.94
44044;BME280;29709;52.396;16.796;2022-11-18T01:27:04;100713.23;;;1.63;68.91
44044;BME280;29709;52.396;16.796;2022-11-18T01:30:14;100716.05;;;1.62;68.61
44044;BME280;29709;52.396;16.796;2022-11-18T01:33:18;100711.95;;;1.56;68.75
44044;BME280;29709;52.396;16.796;2022-11-18T01:36:47;100710.03;;;1.45;68.90
44044;BME280;29709;52.396;16.796;2022-11-18T01:39:50;100700.96;;;1.47;68.69
44044;BME280;29709;52.396;16.796;2022-11-18T01:42:54;100705.51;;;1.46;68.62
44044;BME280;29709;52.396;16.796;2022-11-18T01:45:57;100708.41;;;1.43;68.63
44044;BME280;29709;52.396;16.796;2022-11-18T01:49:10;100704.34;;;1.37;68.54
44044;BME280;29709;52.396;16.796;2022-11-18T01:52:14;100713.32;;;1.38;68.60
44044;BME280;29709;52.396;16.796;2022-11-18T01:55:25;100706.38;;;1.34;68.16
44044;BME280;29709;52.396;16.796;2022-11-18T02:01:40;100703.50;;;1.11;67.65
44044;BME280;29709;52.396;16.796;2022-11-18T02:05:10;100658.84;;;0.68;67.96
44044;BME280;29709;52.396;16.796;2022-11-18T02:08:14;100704.15;;;1.02;68.02
44044;BME280;29709;52.396;16.796;2022-11-18T02:11:19;100709.25;;;1.07;68.13
44044;BME280;29709;52.396;16.796;2022-11-18T02:14:42;100714.66;;;1.07;68.49
44044;BME280;29709;52.396;16.796;2022-11-18T02:21:11;100711.83;;;1.21;68.04
44044;BME280;29709;52.396;16.796;2022-11-18T02:24:30;100700.36;;;1.18;67.72
44044;BME280;29709;52.396;16.796;2022-11-18T02:34:03;100716.18;;;0.98;67.27
44044;BME280;29709;52.396;16.796;2022-11-18T02:40:26;100706.23;;;0.99;66.60
44044;BME280;29709;52.396;16.796;2022-11-18T02:43:41;100699.51;;;0.92;66.84
44044;BME280;29709;52.396;16.796;2022-11-18T02:46:48;100699.51;;;0.92;66.97
44044;BME280;29709;52.396;16.796;2022-11-18T02:50:00;100690.87;;;0.86;66.82
44044;BME280;29709;52.396;16.796;2022-11-18T02:53:06;100697.03;;;0.89;66.93
44044;BME280;29709;52.396;16.796;2022-11-18T02:56:16;100696.27;;;0.86;67.55
44044;BME280;29709;52.396;16.796;2022-11-18T02:59:26;100687.83;;;0.78;67.30
44044;BME280;29709;52.396;16.796;2022-11-18T03:02:42;100688.71;;;0.66;67.65
44044;BME280;29709;52.396;16.796;2022-11-18T03:09:08;100685.21;;;0.51;68.32
44044;BME280;29709;52.396;16.796;2022-11-18T03:12:21;100674.96;;;0.44;68.73
44044;BME280;29709;52.396;16.796;2022-11-18T03:15:39;100674.20;;;0.42;69.01
44044;BME280;29709;52.396;16.796;2022-11-18T03:18:54;100673.31;;;0.41;69.40
44044;BME280;29709;52.396;16.796;2022-11-18T03:28:39;100676.02;;;0.41;69.55
44044;BME280;29709;52.396;16.796;2022-11-18T03:31:53;100669.85;;;0.39;69.86
44044;BME280;29709;52.396;16.796;2022-11-18T03:38:20;100664.22;;;0.29;69.67
44044;BME280;29709;52.396;16.796;2022-11-18T03:41:28;100664.84;;;0.20;70.01
44044;BME280;29709;52.396;16.796;2022-11-18T03:44:36;100663.24;;;0.18;70.24
44044;BME280;29709;52.396;16.796;2022-11-18T03:47:44;100660.64;;;0.16;70.45
44044;BME280;29709;52.396;16.796;2022-11-18T03:50:57;100656.85;;;0.19;70.72
44044;BME280;29709;52.396;16.796;2022-11-18T03:54:11;100658.91;;;0.15;70.72
44044;BME280;29709;52.396;16.796;2022-11-18T03:57:24;100656.55;;;0.11;71.22
44044;BME280;29709;52.396;16.796;2022-11-18T04:00:34;100664.43;;;0.14;71.09
44044;BME280;29709;52.396;16.796;2022-11-18T04:03:39;100671.66;;;0.13;71.76
44044;BME280;29709;52.396;16.796;2022-11-18T04:13:38;100673.28;;;0.16;72.23
44044;BME280;29709;52.396;16.796;2022-11-18T04:16:43;100680.20;;;0.20;72.39
44044;BME280;29709;52.396;16.796;2022-11-18T04:19:47;100678.81;;;0.14;72.44
44044;BME280;29709;52.396;16.796;2022-11-18T04:22:51;100676.62;;;0.07;72.78
44044;BME280;29709;52.396;16.796;2022-11-18T04:26:21;100677.37;;;0.09;72.96
44044;BME280;29709;52.396;16.796;2022-11-18T04:29:24;100675.54;;;0.09;72.98
44044;BME280;29709;52.396;16.796;2022-11-18T04:32:27;100679.78;;;0.13;72.92
44044;BME280;29709;52.396;16.796;2022-11-18T04:38:56;100688.13;;;0.23;72.95
44044;BME280;29709;52.396;16.796;2022-11-18T04:41:59;100686.82;;;0.28;72.66
44044;BME280;29709;52.396;16.796;2022-11-18T04:45:03;100684.80;;;0.32;72.29
44044;BME280;29709;52.396;16.796;2022-11-18T04:48:32;100693.30;;;0.26;72.36
44044;BME280;29709;52.396;16.796;2022-11-18T04:51:35;100693.66;;;0.34;72.47
44044;BME280;29709;52.396;16.796;2022-11-18T04:54:38;100692.68;;;0.35;72.20
44044;BME280;29709;52.396;16.796;2022-11-18T04:57:41;100694.64;;;0.46;72.21
44044;BME280;29709;52.396;16.796;2022-11-18T05:00:56;100694.00;;;0.42;71.54
44044;BME280;29709;52.396;16.796;2022-11-18T05:04:50;100701.99;;;0.44;71.86
44044;BME280;29709;52.396;16.796;2022-11-18T05:11:43;100695.09;;;0.52;71.02
44044;BME280;29709;52.396;16.796;2022-11-18T05:15:06;100702.11;;;0.42;71.22
44044;BME280;29709;52.396;16.796;2022-11-18T05:18:14;100700.91;;;0.34;71.25
44044;BME280;29709;52.396;16.796;2022-11-18T05:21:49;100712.70;;;0.33;71.59
44044;BME280;29709;52.396;16.796;2022-11-18T05:25:14;100713.11;;;0.39;71.37
44044;BME280;29709;52.396;16.796;2022-11-18T05:28:46;100710.17;;;0.29;71.43
44044;BME280;29709;52.396;16.796;2022-11-18T05:31:55;100716.26;;;0.33;71.60
44044;BME280;29709;52.396;16.796;2022-11-18T05:35:04;100723.39;;;0.34;71.37
44044;BME280;29709;52.396;16.796;2022-11-18T05:38:11;100717.02;;;0.35;71.39
44044;BME280;29709;52.396;16.796;2022-11-18T05:41:26;100731.07;;;0.40;71.70
44044;BME280;29709;52.396;16.796;2022-11-18T05:44:54;100722.09;;;0.40;71.29
44044;BME280;29709;52.396;16.796;2022-11-18T05:47:58;100730.20;;;0.40;71.43
44044;BME280;29709;52.396;16.796;2022-11-18T05:51:29;100733.58;;;0.43;71.59
44044;BME280;29709;52.396;16.796;2022-11-18T05:54:41;100741.81;;;0.54;70.95
44044;BME280;29709;52.396;16.796;2022-11-18T05:57:54;100745.05;;;0.47;71.30
44044;BME280;29709;52.396;16.796;2022-11-18T06:01:06;100749.69;;;0.45;71.48
44044;BME280;29709;52.396;16.796;2022-11-18T06:04:29;100746.31;;;0.41;71.70
44044;BME280;29709;52.396;16.796;2022-11-18T06:07:43;100748.59;;;0.35;71.97
44044;BME280;29709;52.396;16.796;2022-11-18T06:11:15;100759.52;;;0.33;72.21
44044;BME280;29709;52.396;16.796;2022-11-18T06:14:26;100756.59;;;0.36;72.36
44044;BME280;29709;52.396;16.796;2022-11-18T06:17:40;100757.86;;;0.31;72.84
44044;BME280;29709;52.396;16.796;2022-11-18T06:20:46;100758.73;;;0.31;73.10
44044;BME280;29709;52.396;16.796;2022-11-18T06:23:49;100771.08;;;0.35;73.22
44044;BME280;29709;52.396;16.796;2022-11-18T06:26:53;100766.53;;;0.36;72.92
44044;BME280;29709;52.396;16.796;2022-11-18T06:30:23;100777.24;;;0.37;73.10
44044;BME280;29709;52.396;16.796;2022-11-18T06:33:26;100776.16;;;0.40;73.00
44044;BME280;29709;52.396;16.796;2022-11-18T06:36:29;100780.92;;;0.36;73.01
44044;BME280;29709;52.396;16.796;2022-11-18T06:39:32;100783.62;;;0.36;73.30
44044;BME280;29709;52.396;16.796;2022-11-18T06:42:35;100793.35;;;0.39;73.23
44044;BME280;29709;52.396;16.796;2022-11-18T06:45:50;100800.74;;;0.49;72.95
44044;BME280;29709;52.396;16.796;2022-11-18T06:49:08;100803.20;;;0.40;73.08
44044;BME280;29709;52.396;16.796;2022-11-18T06:52:37;100807.74;;;0.39;73.39
44044;BME280;29709;52.396;16.796;2022-11-18T06:55:40;100804.85;;;0.42;73.10
44044;BME280;29709;52.396;16.796;2022-11-18T06:58:44;100810.16;;;0.44;72.42
44044;BME280;29709;52.396;16.796;2022-11-18T07:01:47;100809.94;;;0.47;72.60
44044;BME280;29709;52.396;16.796;2022-11-18T07:04:50;100812.53;;;0.48;72.17
44044;BME280;29709;52.396;16.796;2022-11-18T07:07:53;100813.72;;;0.44;71.39
44044;BME280;29709;52.396;16.796;2022-11-18T07:10:57;100815.66;;;0.42;71.51
44044;BME280;29709;52.396;16.796;2022-11-18T07:14:00;100824.97;;;0.51;70.14
44044;BME280;29709;52.396;16.796;2022-11-18T07:17:03;100824.43;;;0.46;70.21
44044;BME280;29709;52.396;16.796;2022-11-18T07:20:08;100824.54;;;0.44;70.33
44044;BME280;29709;52.396;16.796;2022-11-18T07:23:38;100825.08;;;0.49;69.92
44044;BME280;29709;52.396;16.796;2022-11-18T07:26:43;100827.66;;;0.51;69.36
44044;BME280;29709;52.396;16.796;2022-11-18T07:29:46;100828.87;;;0.47;69.82
44044;BME280;29709;52.396;16.796;2022-11-18T07:32:51;100839.47;;;0.50;70.12
44044;BME280;29709;52.396;16.796;2022-11-18T07:35:54;100835.90;;;0.49;70.12
44044;BME280;29709;52.396;16.796;2022-11-18T07:38:58;100836.47;;;0.54;70.08
44044;BME280;29709;52.396;16.796;2022-11-18T07:42:02;100841.14;;;0.65;70.11
44044;BME280;29709;52.396;16.796;2022-11-18T07:45:06;100847.09;;;0.70;70.25
44044;BME280;29709;52.396;16.796;2022-11-18T07:48:09;100851.54;;;0.71;69.45
44044;BME280;29709;52.396;16.796;2022-11-18T07:51:16;100845.70;;;0.65;69.43
44044;BME280;29709;52.396;16.796;2022-11-18T07:54:45;100855.68;;;0.50;69.48
44044;BME280;29709;52.396;16.796;2022-11-18T07:57:48;100841.41;;;0.48;69.81
44044;BME280;29709;52.396;16.796;2022-11-18T08:00:51;100839.06;;;0.56;69.29
44044;BME280;29709;52.396;16.796;2022-11-18T08:03:57;100845.98;;;0.60;68.82
44044;BME280;29709;52.396;16.796;2022-11-18T08:07:01;100846.42;;;0.54;67.30
44044;BME280;29709;52.396;16.796;2022-11-18T08:10:05;100844.02;;;0.49;67.20
44044;BME280;29709;52.396;16.796;2022-11-18T08:13:08;100844.77;;;0.51;66.75
44044;BME280;29709;52.396;16.796;2022-11-18T08:16:16;100863.40;;;0.56;65.90
44044;BME280;29709;52.396;16.796;2022-11-18T08:19:20;100857.16;;;0.41;65.89
44044;BME280;29709;52.396;16.796;2022-11-18T08:22:48;100865.59;;;0.37;66.52
44044;BME280;29709;52.396;16.796;2022-11-18T08:25:51;100868.30;;;0.37;66.28
44044;BME280;29709;52.396;16.796;2022-11-18T08:28:56;100867.90;;;0.43;65.50
44044;BME280;29709;52.396;16.796;2022-11-18T08:31:59;100875.16;;;0.42;65.12
44044;BME280;29709;52.396;16.796;2022-11-18T08:35:03;100873.23;;;0.30;65.24
44044;BME280;29709;52.396;16.796;2022-11-18T08:38:06;100869.27;;;0.36;64.65
44044;BME280;29709;52.396;16.796;2022-11-18T08:41:13;100872.45;;;0.42;64.42
44044;BME280;29709;52.396;16.796;2022-11-18T08:44:17;100878.35;;;0.35;64.68
44044;BME280;29709;52.396;16.796;2022-11-18T08:47:21;100875.91;;;0.44;64.55
44044;BME280;29709;52.396;16.796;2022-11-18T08:50:24;100872.78;;;0.50;64.13
44044;BME280;29709;52.396;16.796;2022-11-18T08:53:55;100888.67;;;0.42;64.75
44044;BME280;29709;52.396;16.796;2022-11-18T08:56:58;100880.45;;;0.44;63.90
44044;BME280;29709;52.396;16.796;2022-11-18T09:00:03;100885.49;;;0.36;63.99
44044;BME280;29709;52.396;16.796;2022-11-18T09:03:07;100883.34;;;0.41;63.80
44044;BME280;29709;52.396;16.796;2022-11-18T09:06:20;100875.75;;;0.33;63.33
44044;BME280;29709;52.396;16.796;2022-11-18T09:09:25;100890.24;;;0.32;64.05
44044;BME280;29709;52.396;16.796;2022-11-18T09:12:34;100880.29;;;0.33;64.02
44044;BME280;29709;52.396;16.796;2022-11-18T09:16:03;100879.32;;;0.34;63.71
44044;BME280;29709;52.396;16.796;2022-11-18T09:19:06;100882.58;;;0.39;64.03
44044;BME280;29709;52.396;16.796;2022-11-18T09:22:09;100878.29;;;0.49;63.45
44044;BME280;29709;52.396;16.796;2022-11-18T09:25:12;100891.67;;;0.65;62.27
44044;BME280;29709;52.396;16.796;2022-11-18T09:28:15;100888.03;;;0.51;62.39
44044;BME280;29709;52.396;16.796;2022-11-18T09:31:19;100893.66;;;0.48;62.58
44044;BME280;29709;52.396;16.796;2022-11-18T09:34:22;100893.86;;;0.45;62.79
44044;BME280;29709;52.396;16.796;2022-11-18T09:37:26;100890.08;;;0.48;62.52
44044;BME280;29709;52.396;16.796;2022-11-18T09:40:30;100891.81;;;0.49;62.69
44044;BME280;29709;52.396;16.796;2022-11-18T09:47:39;100895.60;;;0.46;62.79
44044;BME280;29709;52.396;16.796;2022-11-18T09:50:32;100903.11;;;0.55;62.78
44044;BME280;29709;52.396;16.796;2022-11-18T09:53:40;100900.95;;;0.61;62.36
44044;BME280;29709;52.396;16.796;2022-11-18T09:56:46;100893.63;;;0.63;61.51
44044;BME280;29709;52.396;16.796;2022-11-18T09:59:50;100896.98;;;0.66;61.37
44044;BME280;29709;52.396;16.796;2022-11-18T10:06:34;100891.76;;;1.03;62.07
44044;BME280;29709;52.396;16.796;2022-11-18T10:09:40;100886.28;;;1.17;61.35
44044;BME280;29709;52.396;16.796;2022-11-18T10:12:51;100888.77;;;1.33;61.46
44044;BME280;29709;52.396;16.796;2022-11-18T10:26:07;100886.06;;;1.45;59.34
44044;BME280;29709;52.396;16.796;2022-11-18T10:29:10;100899.83;;;1.42;59.42
44044;BME280;29709;52.396;16.796;2022-11-18T10:32:14;100897.57;;;1.49;59.33
44044;BME280;29709;52.396;16.796;2022-11-18T10:35:28;100892.79;;;1.53;58.38
44044;BME280;29709;52.396;16.796;2022-11-18T10:38:32;100892.67;;;1.54;59.25
44044;BME280;29709;52.396;16.796;2022-11-18T10:41:45;100889.22;;;1.52;58.58
44044;BME280;29709;52.396;16.796;2022-11-18T10:45:25;100899.20;;;1.52;58.44
44044;BME280;29709;52.396;16.796;2022-11-18T10:48:28;100889.44;;;1.49;58.30
44044;BME280;29709;52.396;16.796;2022-11-18T10:51:31;100890.08;;;1.53;58.51
44044;BME280;29709;52.396;16.796;2022-11-18T10:54:34;100889.55;;;1.60;58.31
44044;BME280;29709;52.396;16.796;2022-11-18T10:57:40;100876.30;;;1.81;58.77
44044;BME280;29709;52.396;16.796;2022-11-18T11:00:46;100892.42;;;1.95;58.72
44044;BME280;29709;52.396;16.796;2022-11-18T11:04:02;100890.02;;;2.03;58.33
44044;BME280;29709;52.396;16.796;2022-11-18T11:10:21;100892.27;;;2.22;57.59
44044;BME280;29709;52.396;16.796;2022-11-18T11:13:55;100898.75;;;2.33;57.67
44044;BME280;29709;52.396;16.796;2022-11-18T11:20:20;100893.40;;;2.44;57.05
44044;BME280;29709;52.396;16.796;2022-11-18T11:23:25;100887.85;;;2.45;56.14
44044;BME280;29709;52.396;16.796;2022-11-18T11:26:38;100888.95;;;2.43;56.95
44044;BME280;29709;52.396;16.796;2022-11-18T11:39:39;100888.13;;;2.29;57.77
44044;BME280;29709;52.396;16.796;2022-11-18T11:43:09;100886.38;;;2.28;57.88
44044;BME280;29709;52.396;16.796;2022-11-18T11:49:17;100891.53;;;2.20;56.97
44044;BME280;29709;52.396;16.796;2022-11-18T12:05:34;100904.65;;;2.14;57.46
44044;BME280;29709;52.396;16.796;2022-11-18T12:08:48;100904.41;;;2.29;57.20
44044;BME280;29709;52.396;16.796;2022-11-18T12:18:40;100888.89;;;2.55;54.32
44044;BME280;29709;52.396;16.796;2022-11-18T12:21:53;100892.59;;;2.54;54.69
44044;BME280;29709;52.396;16.796;2022-11-18T12:24:56;100893.16;;;2.47;54.09
44044;BME280;29709;52.396;16.796;2022-11-18T12:28:07;100889.59;;;2.46;54.54
44044;BME280;29709;52.396;16.796;2022-11-18T12:34:37;100894.31;;;2.31;54.78
44044;BME280;29709;52.396;16.796;2022-11-18T12:40:58;100900.92;;;2.27;56.19
44044;BME280;29709;52.396;16.796;2022-11-18T12:44:11;100896.04;;;2.33;56.58
44044;BME280;29709;52.396;16.796;2022-11-18T12:50:58;100906.33;;;2.40;56.69
44044;BME280;29709;52.396;16.796;2022-11-18T12:54:14;100897.96;;;2.43;57.17
44044;BME280;29709;52.396;16.796;2022-11-18T12:57:20;100902.16;;;2.47;56.94
44044;BME280;29709;52.396;16.796;2022-11-18T13:00:30;100910.96;;;2.51;56.72
44044;BME280;29709;52.396;16.796;2022-11-18T13:03:33;100912.90;;;2.49;56.37
44044;BME280;29709;52.396;16.796;2022-11-18T13:07:04;100909.13;;;2.39;56.23
44044;BME280;29709;52.396;16.796;2022-11-18T13:10:23;100904.99;;;2.46;56.70
44044;BME280;29709;52.396;16.796;2022-11-18T13:13:31;100911.83;;;2.51;56.91
44044;BME280;29709;52.396;16.796;2022-11-18T13:16:35;100920.77;;;2.65;56.65
44044;BME280;29709;52.396;16.796;2022-11-18T13:19:54;100920.77;;;2.65;56.69
44044;BME280;29709;52.396;16.796;2022-11-18T13:23:00;100919.91;;;2.64;56.30
44044;BME280;29709;52.396;16.796;2022-11-18T13:29:37;100929.59;;;2.55;56.15
44044;BME280;29709;52.396;16.796;2022-11-18T13:32:44;100925.71;;;2.47;55.66
44044;BME280;29709;52.396;16.796;2022-11-18T13:36:23;100926.86;;;2.31;56.40
44044;BME280;29709;52.396;16.796;2022-11-18T13:39:30;100932.91;;;2.35;56.37
44044;BME280;29709;52.396;16.796;2022-11-18T13:42:33;100936.91;;;2.42;56.46
44044;BME280;29709;52.396;16.796;2022-11-18T13:45:37;100936.44;;;2.48;56.77
44044;BME280;29709;52.396;16.796;2022-11-18T13:48:48;100939.53;;;2.68;56.78
44044;BME280;29709;52.396;16.796;2022-11-18T13:51:53;100941.80;;;2.74;56.19
44044;BME280;29709;52.396;16.796;2022-11-18T13:55:00;100950.81;;;2.74;55.93
44044;BME280;29709;52.396;16.796;2022-11-18T14:01:22;100944.77;;;2.58;55.72
44044;BME280;29709;52.396;16.796;2022-11-18T14:04:29;100955.23;;;2.51;55.60
44044;BME280;29709;52.396;16.796;2022-11-18T14:07:34;100955.67;;;2.45;56.05
44044;BME280;29709;52.396;16.796;2022-11-18T14:11:04;100957.88;;;2.40;56.30
44044;BME280;29709;52.396;16.796;2022-11-18T14:14:27;100951.74;;;2.49;56.63
44044;BME280;29709;52.396;16.796;2022-11-18T14:17:27;100960.47;;;2.42;56.36
44044;BME280;29709;52.396;16.796;2022-11-18T14:20:30;100953.22;;;2.29;56.35
44044;BME280;29709;52.396;16.796;2022-11-18T14:23:35;100961.16;;;2.20;56.35
44044;BME280;29709;52.396;16.796;2022-11-18T14:26:38;100962.34;;;2.16;56.63
44044;BME280;29709;52.396;16.796;2022-11-18T14:29:49;100956.40;;;2.11;56.86
44044;BME280;29709;52.396;16.796;2022-11-18T14:36:13;100963.88;;;1.94;56.91
44044;BME280;29709;52.396;16.796;2022-11-18T14:39:24;100972.23;;;1.91;57.49
44044;BME280;29709;52.396;16.796;2022-11-18T14:42:27;100966.17;;;1.88;57.71
44044;BME280;29709;52.396;16.796;2022-11-18T14:45:58;100967.02;;;1.76;57.60
44044;BME280;29709;52.396;16.796;2022-11-18T14:49:05;100970.59;;;1.63;57.65
44044;BME280;29709;52.396;16.796;2022-11-18T14:52:11;100968.52;;;1.54;57.90
44044;BME280;29709;52.396;16.796;2022-11-18T14:55:14;100976.23;;;1.48;58.04
44044;BME280;29709;52.396;16.796;2022-11-18T14:58:18;100982.05;;;1.41;57.96
44044;BME280;29709;52.396;16.796;2022-11-18T15:01:21;100984.22;;;1.36;58.48
44044;BME280;29709;52.396;16.796;2022-11-18T15:04:26;100980.84;;;1.33;58.49
44044;BME280;29709;52.396;16.796;2022-11-18T15:07:29;100992.00;;;1.28;58.89
44044;BME280;29709;52.396;16.796;2022-11-18T15:10:33;100995.00;;;1.24;58.88
44044;BME280;29709;52.396;16.796;2022-11-18T15:14:02;100999.87;;;1.19;58.99
44044;BME280;29709;52.396;16.796;2022-11-18T15:17:05;101002.22;;;1.10;59.11
44044;BME280;29709;52.396;16.796;2022-11-18T15:20:13;101002.54;;;1.06;58.96
44044;BME280;29709;52.396;16.796;2022-11-18T15:23:18;100994.82;;;1.00;59.25
44044;BME280;29709;52.396;16.796;2022-11-18T15:29:32;101008.96;;;0.91;59.34
44044;BME280;29709;52.396;16.796;2022-11-18T15:32:35;101012.85;;;0.86;59.53
44044;BME280;29709;52.396;16.796;2022-11-18T15:35:38;101017.29;;;0.88;59.73
44044;BME280;29709;52.396;16.796;2022-11-18T15:39:08;101023.67;;;0.86;59.89
44044;BME280;29709;52.396;16.796;2022-11-18T15:42:11;101022.91;;;0.84;59.89
44044;BME280;29709;52.396;16.796;2022-11-18T15:45:14;101028.71;;;0.78;60.02
44044;BME280;29709;52.396;16.796;2022-11-18T15:48:18;101027.36;;;0.71;60.24
44044;BME280;29709;52.396;16.796;2022-11-18T15:51:21;101028.76;;;0.64;60.38
44044;BME280;29709;52.396;16.796;2022-11-18T15:54:25;101037.91;;;0.62;60.66
44044;BME280;29709;52.396;16.796;2022-11-18T15:57:28;101035.30;;;0.60;60.58
44044;BME280;29709;52.396;16.796;2022-11-18T16:00:32;101040.05;;;0.56;60.71
44044;BME280;29709;52.396;16.796;2022-11-18T16:03:35;101042.98;;;0.53;60.76
44044;BME280;29709;52.396;16.796;2022-11-18T16:06:39;101048.76;;;0.47;61.05
44044;BME280;29709;52.396;16.796;2022-11-18T16:10:10;101054.27;;;0.46;61.13
44044;BME280;29709;52.396;16.796;2022-11-18T16:13:25;101051.46;;;0.47;61.22
44044;BME280;29709;52.396;16.796;2022-11-18T16:16:29;101061.03;;;0.53;61.07
44044;BME280;29709;52.396;16.796;2022-11-18T16:19:33;101061.79;;;0.55;60.87
44044;BME280;29709;52.396;16.796;2022-11-18T16:22:36;101068.07;;;0.55;61.18
44044;BME280;29709;52.396;16.796;2022-11-18T16:25:43;101075.12;;;0.58;61.00
44044;BME280;29709;52.396;16.796;2022-11-18T16:28:47;101077.71;;;0.60;61.04
44044;BME280;29709;52.396;16.796;2022-11-18T16:32:18;101083.23;;;0.58;61.03
44044;BME280;29709;52.396;16.796;2022-11-18T16:35:21;101078.48;;;0.62;60.83
44044;BME280;29709;52.396;16.796;2022-11-18T16:38:24;101078.00;;;0.69;60.91
44044;BME280;29709;52.396;16.796;2022-11-18T16:41:28;101081.36;;;0.73;60.57
44044;BME280;29709;52.396;16.796;2022-11-18T16:44:33;101083.02;;;0.75;60.37
44044;BME280;29709;52.396;16.796;2022-11-18T16:47:37;101089.58;;;0.71;60.42
44044;BME280;29709;52.396;16.796;2022-11-18T16:50:40;101091.52;;;0.69;60.35
44044;BME280;29709;52.396;16.796;2022-11-18T16:53:43;101094.44;;;0.66;60.61
44044;BME280;29709;52.396;16.796;2022-11-18T16:56:53;101097.24;;;0.65;60.84
44044;BME280;29709;52.396;16.796;2022-11-18T17:00:22;101100.91;;;0.64;60.87
44044;BME280;29709;52.396;16.796;2022-11-18T17:03:25;101098.11;;;0.65;60.85
44044;BME280;29709;52.396;16.796;2022-11-18T17:06:30;101108.72;;;0.68;60.92
44044;BME280;29709;52.396;16.796;2022-11-18T17:09:33;101109.39;;;0.72;60.77
44044;BME280;29709;52.396;16.796;2022-11-18T17:12:38;101116.08;;;0.66;60.78
44044;BME280;29709;52.396;16.796;2022-11-18T17:15:41;101112.41;;;0.67;61.00
44044;BME280;29709;52.396;16.796;2022-11-18T17:18:45;101115.00;;;0.69;61.01
44044;BME280;29709;52.396;16.796;2022-11-18T17:21:49;101114.13;;;0.68;61.05
44044;BME280;29709;52.396;16.796;2022-11-18T17:24:53;101110.55;;;0.68;61.25
44044;BME280;29709;52.396;16.796;2022-11-18T17:28:24;101118.98;;;0.63;61.44
44044;BME280;29709;52.396;16.796;2022-11-18T17:31:27;101111.42;;;0.68;61.40
44044;BME280;29709;52.396;16.796;2022-11-18T17:34:30;101117.61;;;0.70;61.54
44044;BME280;29709;52.396;16.796;2022-11-18T17:37:33;101122.74;;;0.75;61.44
44044;BME280;29709;52.396;16.796;2022-11-18T17:40:36;101124.38;;;0.77;61.27
44044;BME280;29709;52.396;16.796;2022-11-18T17:43:40;101135.28;;;0.90;61.45
44044;BME280;29709;52.396;16.796;2022-11-18T17:46:43;101127.26;;;0.89;60.98
44044;BME280;29709;52.396;16.796;2022-11-18T17:49:48;101130.07;;;0.87;60.98
44044;BME280;29709;52.396;16.796;2022-11-18T17:52:53;101126.77;;;0.82;61.24
44044;BME280;29709;52.396;16.796;2022-11-18T17:55:56;101141.16;;;0.82;61.22
44044;BME280;29709;52.396;16.796;2022-11-18T17:59:25;101140.30;;;0.82;61.30
44044;BME280;29709;52.396;16.796;2022-11-18T18:02:28;101145.81;;;0.80;61.31
44044;BME280;29709;52.396;16.796;2022-11-18T18:05:31;101139.53;;;0.80;61.29
44044;BME280;29709;52.396;16.796;2022-11-18T18:08:34;101129.39;;;0.69;61.42
44044;BME280;29709;52.396;16.796;2022-11-18T18:11:37;101142.45;;;0.77;61.70
44044;BME280;29709;52.396;16.796;2022-11-18T18:14:40;101141.37;;;0.79;61.74
44044;BME280;29709;52.396;16.796;2022-11-18T18:17:45;101144.84;;;0.81;61.73
44044;BME280;29709;52.396;16.796;2022-11-18T18:20:49;101148.42;;;0.82;61.92
44044;BME280;29709;52.396;16.796;2022-11-18T18:23:53;101154.52;;;0.85;61.93
44044;BME280;29709;52.396;16.796;2022-11-18T18:26:56;101155.49;;;0.84;61.95
44044;BME280;29709;52.396;16.796;2022-11-18T18:29:59;101151.82;;;0.85;61.95
44044;BME280;29709;52.396;16.796;2022-11-18T18:33:28;101159.93;;;0.85;62.22
44044;BME280;29709;52.396;16.796;2022-11-18T18:36:32;101157.33;;;0.84;62.42